Time;durP1;ratioP1;P1;durP2;ratioP2;P2;SDS_P1;SDS_P2;PMS_P1;PMS_P2;Temp;Humidity;BMP_temperature;BMP_pressure;BME280_temperature;BME280_humidity;BME280_pressure;Samples;Min_cycle;Max_cycle;Signal;HPM_P1;HPM_P2
2023/12/26 00:02:53;;;;;;;7.85;3.83;;;;;;;11.76;54.46;99457.34;7790768;32;36825;-89
2023/12/26 00:07:09;;;;;;;9.32;3.97;;;;;;;11.54;55.13;99471.44;7791347;32;39467;-88
2023/12/26 00:11:27;;;;;;;8.18;4.20;;;;;;;11.43;55.12;99470.72;7794457;32;40451;-88
2023/12/26 00:15:44;;;;;;;8.65;3.80;;;;;;;11.37;55.09;99478.16;7794261;32;39056;-88
2023/12/26 00:20:00;;;;;;;8.85;4.22;;;;;;;11.42;54.78;99483.56;7793930;32;37690;-89
2023/12/26 00:24:16;;;;;;;12.52;3.90;;;;;;;11.43;54.81;99476.19;7794086;32;39370;-89
2023/12/26 00:28:33;;;;;;;9.00;3.97;;;;;;;11.48;54.53;99478.06;7794022;32;39966;-88
2023/12/26 00:32:49;;;;;;;12.55;4.20;;;;;;;11.53;54.35;99481.56;7793620;32;37941;-89
2023/12/26 00:37:06;;;;;;;7.10;3.90;;;;;;;11.61;54.16;99482.87;7794058;32;36722;-88
2023/12/26 00:41:23;;;;;;;11.20;4.00;;;;;;;11.64;54.15;99472.19;7793553;32;40028;-88
2023/12/26 00:45:39;;;;;;;8.48;3.78;;;;;;;11.77;53.68;99470.69;7793810;32;39982;-88
2023/12/26 00:49:57;;;;;;;7.35;3.60;;;;;;;11.64;53.87;99480.38;7793616;32;38764;-89
2023/12/26 00:54:13;;;;;;;8.00;3.65;;;;;;;11.63;53.64;99481.47;7794084;32;37819;-89
2023/12/26 00:58:29;;;;;;;7.53;4.00;;;;;;;11.92;53.02;99480.72;7793679;32;39188;-89
2023/12/26 01:02:46;;;;;;;8.48;3.97;;;;;;;11.71;53.67;99487.41;7793552;32;39611;-88
2023/12/26 01:07:02;;;;;;;8.65;3.70;;;;;;;11.51;54.24;99488.41;7793344;32;37894;-89
2023/12/26 01:11:18;;;;;;;7.20;3.22;;;;;;;11.62;54.01;99490.78;7793486;32;37639;-89
2023/12/26 01:15:35;;;;;;;7.60;4.00;;;;;;;11.49;54.48;99485.97;7793257;32;39145;-88
2023/12/26 01:19:51;;;;;;;10.13;4.62;;;;;;;11.56;54.34;99491.13;7792638;32;40809;-88
2023/12/26 01:24:08;;;;;;;8.50;4.07;;;;;;;11.63;54.40;99483.41;7792740;32;38435;-88
2023/12/26 01:28:24;;;;;;;9.85;4.40;;;;;;;11.68;54.31;99488.00;7793327;32;36979;-89
2023/12/26 01:32:40;;;;;;;7.68;3.53;;;;;;;11.83;54.10;99485.94;7793191;32;39538;-89
2023/12/26 01:36:57;;;;;;;6.90;3.55;;;;;;;11.72;54.16;99483.59;7793107;32;39906;-89
2023/12/26 01:41:13;;;;;;;10.63;3.62;;;;;;;11.88;53.99;99484.25;7793001;32;38219;-89
2023/12/26 01:45:29;;;;;;;7.90;3.45;;;;;;;11.92;54.01;99475.25;7792941;32;37064;-85
2023/12/26 01:49:46;;;;;;;7.15;3.53;;;;;;;11.98;54.18;99476.81;7778861;32;39680;-85
2023/12/26 01:54:02;;;;;;;6.95;3.30;;;;;;;11.81;54.52;99470.94;7793011;32;40059;-87
2023/12/26 01:58:19;;;;;;;7.15;3.50;;;;;;;12.13;53.62;99466.84;7792913;32;38645;-87
2023/12/26 02:02:36;;;;;;;6.53;3.78;;;;;;;11.97;54.01;99475.19;7792953;32;36857;-89
2023/12/26 02:06:54;;;;;;;6.93;3.60;;;;;;;11.95;53.55;99460.19;7779031;32;39151;-89
2023/12/26 02:11:10;;;;;;;9.93;3.70;;;;;;;12.18;52.81;99472.25;7778842;32;40554;-89
2023/12/26 02:15:26;;;;;;;6.65;3.30;;;;;;;12.07;53.11;99470.72;7792712;32;38869;-89
2023/12/26 02:19:43;;;;;;;9.00;3.70;;;;;;;12.14;53.39;99468.44;7778815;32;36966;-90
2023/12/26 02:24:00;;;;;;;7.80;3.15;;;;;;;12.18;53.92;99458.59;7794731;32;40096;-91
2023/12/26 02:28:16;;;;;;;7.62;3.58;;;;;;;12.15;54.27;99467.34;7792891;32;40698;-89
2023/12/26 02:32:34;;;;;;;11.80;3.55;;;;;;;12.12;54.02;99476.13;7794648;32;37904;-86
2023/12/26 02:36:50;;;;;;;12.45;4.45;;;;;;;12.16;53.54;99471.72;7785025;32;37314;-91
2023/12/26 02:41:07;;;;;;;6.07;3.20;;;;;;;12.08;53.56;99477.81;7799172;32;39426;-88
2023/12/26 02:45:23;;;;;;;8.27;3.65;;;;;;;12.17;53.75;99457.75;7797368;32;40196;-89
2023/12/26 02:49:39;;;;;;;9.23;3.95;;;;;;;12.14;53.77;99463.00;7793815;32;38265;-90
2023/12/26 02:53:55;;;;;;;9.38;3.53;;;;;;;12.13;54.08;99464.09;7792179;32;36960;-88
2023/12/26 02:58:12;;;;;;;6.30;3.53;;;;;;;11.91;54.70;99457.22;7792063;32;38915;-88
2023/12/26 03:02:28;;;;;;;7.78;3.55;;;;;;;12.00;54.43;99457.41;7792495;32;40152;-89
2023/12/26 03:06:44;;;;;;;6.85;2.90;;;;;;;12.20;53.70;99459.09;7778026;32;37934;-89
2023/12/26 03:11:01;;;;;;;11.85;3.40;;;;;;;12.27;53.23;99445.91;7791853;32;36822;-88
2023/12/26 03:15:17;;;;;;;8.80;3.45;;;;;;;12.15;53.29;99454.50;7791784;32;39916;-88
2023/12/26 03:19:33;;;;;;;6.30;3.37;;;;;;;11.97;54.09;99447.03;7792126;32;40079;-89
2023/12/26 03:23:51;;;;;;;10.10;3.60;;;;;;;12.15;53.69;99459.16;7791747;32;38093;-90
2023/12/26 03:28:08;;;;;;;8.48;3.80;;;;;;;11.94;54.21;99451.19;7791757;32;36768;-90
2023/12/26 03:32:24;;;;;;;8.20;3.92;;;;;;;11.91;53.76;99453.69;7791803;32;39302;-89
2023/12/26 03:36:45;;;;;;;8.07;3.80;;;;;;;11.75;54.32;99447.53;7791524;32;39971;-90
2023/12/26 03:41:01;;;;;;;9.30;3.53;;;;;;;11.52;55.00;99441.72;7791393;32;38031;-89
2023/12/26 03:45:17;;;;;;;5.80;3.30;;;;;;;11.46;55.40;99437.41;7794295;32;37929;-88
2023/12/26 03:49:35;;;;;;;8.75;3.30;;;;;;;11.62;54.63;99424.44;7794543;32;39113;-89
2023/12/26 03:53:51;;;;;;;5.12;2.85;;;;;;;11.56;54.74;99436.50;7794776;32;39954;-89
2023/12/26 03:58:07;;;;;;;6.15;2.80;;;;;;;11.46;54.73;99438.22;7794317;32;37825;-89
2023/12/26 04:02:24;;;;;;;7.00;2.83;;;;;;;11.43;54.73;99432.50;7794707;32;36624;-90
2023/12/26 04:06:40;;;;;;;6.43;3.20;;;;;;;11.45;54.72;99430.31;7796041;32;39768;-91
2023/12/26 04:10:56;;;;;;;7.15;3.20;;;;;;;11.37;55.10;99430.94;7804652;32;40089;-86
2023/12/26 04:15:13;;;;;;;11.68;3.37;;;;;;;11.17;55.78;99429.19;7806561;32;38220;-85
2023/12/26 04:19:30;;;;;;;5.37;3.15;;;;;;;11.17;56.05;99418.25;7796729;32;36901;-90
2023/12/26 04:23:46;;;;;;;6.37;3.28;;;;;;;10.96;56.67;99420.34;7794520;32;39316;-90
2023/12/26 04:28:03;;;;;;;7.00;3.28;;;;;;;10.97;56.68;99413.75;7794194;32;40693;-90
2023/12/26 04:32:19;;;;;;;9.30;3.10;;;;;;;10.81;57.04;99419.31;7794108;32;38175;-90
2023/12/26 04:36:35;;;;;;;6.53;3.12;;;;;;;10.96;56.45;99409.44;7794325;32;36935;-90
2023/12/26 04:40:52;;;;;;;5.40;3.42;;;;;;;10.96;56.42;99390.34;7794100;32;39824;-90
2023/12/26 04:45:09;;;;;;;9.98;3.28;;;;;;;10.92;56.54;99395.53;7793855;32;40740;-90
2023/12/26 04:49:25;;;;;;;8.55;3.78;;;;;;;10.69;57.13;99407.94;7793691;32;37911;-89
2023/12/26 04:53:42;;;;;;;5.97;3.75;;;;;;;10.20;58.49;99406.00;7792860;32;37124;-89
2023/12/26 04:57:58;;;;;;;9.20;3.50;;;;;;;10.39;57.92;99404.28;7779744;32;38906;-88
2023/12/26 05:02:14;;;;;;;5.78;3.15;;;;;;;10.32;57.57;99396.41;7793625;32;41096;-89
2023/12/26 05:06:31;;;;;;;6.85;3.00;;;;;;;10.19;57.91;99388.00;7793399;32;37833;-88
2023/12/26 05:10:47;;;;;;;5.78;3.10;;;;;;;10.30;57.46;99397.78;7793683;32;37056;-88
2023/12/26 05:15:04;;;;;;;6.43;3.17;;;;;;;10.13;57.99;99401.66;7793440;32;39241;-88
2023/12/26 05:19:20;;;;;;;5.80;3.10;;;;;;;10.07;57.75;99397.31;7793176;32;40911;-88
2023/12/26 05:23:37;;;;;;;7.80;3.22;;;;;;;9.92;58.26;99402.81;7793252;32;37847;-87
2023/12/26 05:27:53;;;;;;;6.72;4.15;;;;;;;9.78;58.65;99408.84;7793255;32;37044;-88
2023/12/26 05:32:09;;;;;;;6.30;3.50;;;;;;;9.75;58.23;99408.56;7793384;32;40008;-88
2023/12/26 05:36:26;;;;;;;7.68;3.78;;;;;;;9.98;57.49;99409.06;7793201;32;39605;-88
2023/12/26 05:40:42;;;;;;;11.35;4.18;;;;;;;9.40;59.21;99421.97;7792791;32;37941;-88
2023/12/26 05:44:58;;;;;;;12.30;4.50;;;;;;;9.20;59.50;99428.19;7793264;32;36979;-88
2023/12/26 05:49:15;;;;;;;9.88;4.55;;;;;;;9.23;59.75;99429.56;7792708;32;39335;-88
2023/12/26 05:53:32;;;;;;;8.63;4.18;;;;;;;9.16;59.65;99427.13;7792896;32;40735;-89
2023/12/26 05:57:48;;;;;;;11.45;4.18;;;;;;;9.19;59.22;99432.03;7792900;32;37527;-88
2023/12/26 06:02:05;;;;;;;11.90;5.32;;;;;;;8.92;59.54;99426.03;7793028;32;37019;-88
2023/12/26 06:06:21;;;;;;;9.38;5.97;;;;;;;8.98;59.36;99427.66;7792528;32;39905;-88
2023/12/26 06:10:38;;;;;;;16.85;7.15;;;;;;;8.83;59.85;99417.59;7792456;32;40065;-88
2023/12/26 06:14:54;;;;;;;14.48;6.93;;;;;;;8.99;59.89;99429.28;7792616;32;37527;-88
2023/12/26 06:19:10;;;;;;;14.02;6.35;;;;;;;8.61;61.59;99442.25;7792799;32;37157;-88
2023/12/26 06:23:27;;;;;;;17.17;6.35;;;;;;;8.37;62.72;99444.59;7792673;32;40061;-89
2023/12/26 06:27:44;;;;;;;16.05;5.70;;;;;;;8.58;61.86;99442.78;7778534;32;39724;-86
2023/12/26 06:32:00;;;;;;;10.93;5.62;;;;;;;8.14;63.23;99457.53;7792164;32;38411;-85
2023/12/26 06:36:16;;;;;;;12.30;5.40;;;;;;;8.38;62.14;99447.03;7792470;32;37758;-84
2023/12/26 06:40:33;;;;;;;12.88;6.20;;;;;;;8.35;61.50;99455.72;7791929;32;40070;-85
2023/12/26 06:44:49;;;;;;;9.90;6.00;;;;;;;8.21;62.30;99460.81;7791926;32;38451;-84
2023/12/26 06:49:05;;;;;;;10.63;6.25;;;;;;;8.07;62.88;99481.34;7792124;32;38038;-87
2023/12/26 06:53:22;;;;;;;12.30;6.28;;;;;;;7.93;63.54;99486.44;7792153;32;36788;-84
2023/12/26 06:57:38;;;;;;;13.23;6.43;;;;;;;7.41;65.83;99500.69;7791754;32;39311;-87
2023/12/26 07:01:54;;;;;;;13.62;7.25;;;;;;;7.83;64.22;99508.06;7791509;32;40758;-85
2023/12/26 07:06:11;;;;;;;14.50;7.78;;;;;;;7.87;63.72;99506.50;7790911;32;38584;-86
2023/12/26 07:10:27;;;;;;;14.43;7.37;;;;;;;8.07;62.76;99524.78;7777331;32;37935;-85
2023/12/26 07:14:43;;;;;;;16.55;8.57;;;;;;;7.95;63.25;99532.31;7791282;32;40204;-85
2023/12/26 07:19:00;;;;;;;20.50;8.80;;;;;;;7.93;64.22;99529.84;7776953;32;39655;-85
2023/12/26 07:23:17;;;;;;;19.45;8.82;;;;;;;8.11;62.96;99520.50;7791762;32;37981;-85
2023/12/26 07:27:33;;;;;;;17.02;8.00;;;;;;;7.98;63.98;99537.22;7790870;32;36947;-85
2023/12/26 07:31:52;;;;;;;22.85;8.77;;;;;;;8.16;63.99;99535.97;7791419;32;38919;-85
2023/12/26 07:36:12;;;;;;;18.00;8.85;;;;;;;8.37;63.13;99504.34;7790290;32;39587;-85
2023/12/26 07:40:29;;;;;;;16.80;8.98;;;;;;;8.39;63.35;99502.97;7790865;32;37492;-87
2023/12/26 07:44:45;;;;;;;14.38;8.00;;;;;;;8.62;63.13;99492.78;7790973;32;37949;-84
2023/12/26 07:49:04;;;;;;;16.73;9.45;;;;;;;8.38;62.28;99501.38;7790614;32;38341;-85
2023/12/26 07:53:21;;;;;;;13.18;7.37;;;;;;;8.28;62.74;99491.25;7790780;32;39998;-83
2023/12/26 07:57:38;;;;;;;9.60;6.00;;;;;;;8.89;64.78;99480.94;7790705;32;37931;-77
2023/12/26 08:01:56;;;;;;;16.80;6.25;;;;;;;8.96;63.56;99479.56;7790311;32;36069;-85
2023/12/26 08:06:12;;;;;;;13.10;6.35;;;;;;;9.26;61.99;99480.72;7790403;32;39593;-85
2023/12/26 08:10:29;;;;;;;17.05;7.18;;;;;;;9.37;61.21;99486.97;7782843;32;39978;-79
2023/12/26 08:14:45;;;;;;;14.10;5.93;;;;;;;9.92;66.67;99484.50;7790013;32;37820;-86
2023/12/26 08:19:02;;;;;;;13.45;6.62;;;;;;;9.80;61.51;99495.69;7790486;32;37075;-86
2023/12/26 08:23:18;;;;;;;12.23;6.40;;;;;;;10.13;60.05;99482.56;7789453;32;39895;-88
2023/12/26 08:27:36;;;;;;;13.82;6.60;;;;;;;10.06;59.67;99498.37;7789972;32;39887;-88
2023/12/26 08:31:53;;;;;;;12.80;6.75;;;;;;;9.98;59.63;99507.91;7793850;32;37817;-85
2023/12/26 08:36:09;;;;;;;13.07;7.32;;;;;;;10.51;58.52;99505.63;7794067;32;37105;-89
2023/12/26 08:40:26;;;;;;;13.27;6.43;;;;;;;10.73;57.77;99511.78;7779615;32;39759;-89
2023/12/26 08:44:42;;;;;;;14.65;7.07;;;;;;;10.71;57.40;99523.81;7792742;32;40916;-87
2023/12/26 08:48:58;;;;;;;13.40;6.47;;;;;;;10.77;57.00;99540.97;7792977;32;37895;-88
2023/12/26 08:53:15;;;;;;;13.52;6.53;;;;;;;11.11;56.75;99548.44;7793072;32;37045;-87
2023/12/26 08:57:31;;;;;;;14.85;6.60;;;;;;;11.28;57.56;99550.81;7793249;32;39245;-87
2023/12/26 09:01:48;;;;;;;14.35;6.50;;;;;;;11.53;56.66;99551.72;7793586;32;40101;-88
2023/12/26 09:06:04;;;;;;;12.65;6.82;;;;;;;11.32;57.05;99575.63;7791981;32;37728;-87
2023/12/26 09:10:21;;;;;;;14.98;8.68;;;;;;;11.29;57.25;99563.34;7792449;32;37700;-88
2023/12/26 09:14:37;;;;;;;18.67;9.85;;;;;;;11.83;55.65;99564.31;7792908;32;39224;-87
2023/12/26 09:18:53;;;;;;;13.98;8.93;;;;;;;11.81;55.21;99558.34;7792803;32;40495;-87
2023/12/26 09:23:12;;;;;;;18.60;10.07;;;;;;;12.26;54.08;99575.44;7791575;32;38542;-87
2023/12/26 09:27:28;;;;;;;18.35;9.93;;;;;;;11.83;54.86;99577.97;7791633;32;36787;-87
2023/12/26 09:31:44;;;;;;;18.30;9.27;;;;;;;11.83;54.89;99567.06;7793129;32;39927;-87
2023/12/26 09:36:01;;;;;;;13.13;8.20;;;;;;;11.86;54.87;99588.34;7792590;32;40873;-85
2023/12/26 09:40:18;;;;;;;15.05;8.10;;;;;;;12.14;54.83;99583.22;7792369;32;37527;-86
2023/12/26 09:44:34;;;;;;;18.77;8.50;;;;;;;12.23;55.82;99583.41;7792588;32;37365;-87
2023/12/26 09:48:51;;;;;;;19.85;8.52;;;;;;;12.01;54.14;99569.13;7792085;32;39955;-86
2023/12/26 09:53:08;;;;;;;19.60;8.55;;;;;;;12.56;53.72;99554.38;7792812;32;39950;-86
2023/12/26 09:57:25;;;;;;;18.52;8.52;;;;;;;13.09;52.65;99547.97;7792733;32;37806;-86
2023/12/26 10:01:44;;;;;;;17.15;8.45;;;;;;;13.33;51.90;99548.78;7792646;32;37842;-86
2023/12/26 10:06:01;;;;;;;21.62;9.02;;;;;;;13.06;51.32;99554.88;7793036;32;39950;-87
2023/12/26 10:10:21;;;;;;;15.20;8.20;;;;;;;12.50;52.53;99552.81;7792479;32;41342;-85
2023/12/26 10:14:37;;;;;;;17.87;8.40;;;;;;;13.29;51.18;99546.88;7791788;32;37313;-85
2023/12/26 10:18:54;;;;;;;16.55;8.75;;;;;;;13.50;50.97;99545.53;7792637;32;36753;-85
2023/12/26 10:23:12;;;;;;;18.62;7.65;;;;;;;13.89;51.08;99516.94;7791625;32;38969;-85
2023/12/26 10:27:28;;;;;;;14.77;6.78;;;;;;;14.30;49.98;99514.56;7792422;32;40802;-86
2023/12/26 10:31:44;;;;;;;14.23;5.80;;;;;;;14.31;48.30;99516.19;7792438;32;38667;-85
2023/12/26 10:36:03;;;;;;;16.83;6.10;;;;;;;14.94;47.83;99512.75;7792433;32;37801;-85
2023/12/26 10:40:20;;;;;;;16.05;6.65;;;;;;;15.05;46.54;99505.09;7792434;32;38562;-86
2023/12/26 10:44:36;;;;;;;12.13;5.82;;;;;;;15.14;46.03;99494.19;7792407;32;39845;-87
2023/12/26 10:48:56;;;;;;;13.23;6.12;;;;;;;15.42;47.02;99524.31;7792060;32;38074;-82
2023/12/26 10:53:19;;;;;;;19.30;7.40;;;;;;;15.52;45.70;99521.31;7777491;32;36989;-86
2023/12/26 10:57:36;;;;;;;19.70;6.32;;;;;;;15.92;45.68;99525.06;7792207;32;39761;-86
2023/12/26 11:01:52;;;;;;;8.80;4.00;;;;;;;15.97;44.67;99521.37;7792045;32;40748;-86
2023/12/26 11:06:22;;;;;;;11.57;4.12;;;;;;;15.47;46.23;99514.03;7791972;32;39081;-87
2023/12/26 11:10:39;;;;;;;9.60;4.75;;;;;;;15.93;44.88;99495.63;7791881;32;37677;-87
2023/12/26 11:14:55;;;;;;;14.75;4.85;;;;;;;15.45;44.87;99515.47;7777673;32;39914;-86
2023/12/26 11:19:11;;;;;;;11.82;3.97;;;;;;;15.48;46.18;99506.59;7791785;32;40018;-86
2023/12/26 11:23:28;;;;;;;11.50;4.53;;;;;;;16.13;44.15;99492.31;7791878;32;37560;-86
2023/12/26 11:27:45;;;;;;;14.45;5.07;;;;;;;16.00;44.31;99492.41;7777527;32;36997;-86
2023/12/26 11:32:01;;;;;;;13.48;5.20;;;;;;;16.12;43.21;99490.69;7777414;32;40077;-86
2023/12/26 11:36:17;;;;;;;15.00;4.87;;;;;;;16.52;44.46;99485.22;7777255;32;41025;-87
2023/12/26 11:40:34;;;;;;;13.57;4.95;;;;;;;16.18;43.26;99476.81;7789933;32;37578;-86
2023/12/26 11:44:50;;;;;;;11.20;4.65;;;;;;;16.18;44.01;99472.12;7776978;32;37721;-87
2023/12/26 11:49:07;;;;;;;10.80;4.40;;;;;;;16.12;43.26;99465.16;7776916;32;39191;-87
2023/12/26 11:53:24;;;;;;;10.20;4.20;;;;;;;16.18;43.90;99476.81;7790708;32;40163;-87
2023/12/26 11:57:40;;;;;;;12.80;4.43;;;;;;;16.50;44.55;99468.19;7776900;32;37659;-87
2023/12/26 12:01:56;;;;;;;13.02;4.47;;;;;;;16.04;43.36;99477.75;7790722;32;36947;-87
2023/12/26 12:06:15;;;;;;;9.15;4.20;;;;;;;15.52;44.90;99466.38;7779962;32;39930;-86
2023/12/26 12:10:32;;;;;;;13.82;4.75;;;;;;;16.19;44.60;99461.94;7794010;32;39636;-87
2023/12/26 12:14:54;;;;;;;13.10;4.05;;;;;;;16.36;43.96;99456.50;7793784;32;37939;-87
2023/12/26 12:19:13;;;;;;;8.43;3.95;;;;;;;15.76;44.33;99466.91;7793989;32;36990;-88
2023/12/26 12:23:30;;;;;;;7.18;3.83;;;;;;;16.14;44.67;99471.97;7780610;32;38832;-88
2023/12/26 12:28:09;;;;;;;12.90;4.57;;;;;;;15.78;44.25;99474.84;7779896;32;39695;-88
2023/12/26 12:32:36;;;;;;;10.52;3.62;;;;;;;15.03;46.51;99483.44;7793877;32;38418;-88
2023/12/26 12:36:53;;;;;;;8.55;3.50;;;;;;;15.12;45.84;99496.44;7793918;32;36977;-87
2023/12/26 12:41:11;;;;;;;14.48;5.53;;;;;;;15.52;45.66;99499.34;7780119;32;39121;-88
2023/12/26 12:45:28;;;;;;;8.15;3.40;;;;;;;14.79;46.85;99505.66;7793895;32;40629;-88
2023/12/26 12:49:44;;;;;;;7.10;2.67;;;;;;;14.32;45.68;99506.88;7784193;32;38548;-85
2023/12/26 12:54:00;;;;;;;5.57;2.92;;;;;;;14.05;42.39;99497.47;7780702;32;37607;-88
2023/12/26 12:58:17;;;;;;;8.88;2.60;;;;;;;14.68;42.44;99514.41;7793893;32;39330;-87
2023/12/26 13:02:33;;;;;;;5.25;2.33;;;;;;;14.51;42.14;99515.00;7793512;32;40858;-87
2023/12/26 13:06:49;;;;;;;5.72;2.60;;;;;;;14.56;41.79;99510.22;7793474;32;37932;-88
2023/12/26 13:11:06;;;;;;;7.03;2.95;;;;;;;14.25;42.78;99519.03;7779217;32;36556;-87
2023/12/26 13:15:22;;;;;;;6.12;2.60;;;;;;;14.72;41.17;99538.19;7792756;32;40044;-88
2023/12/26 13:19:42;;;;;;;5.45;2.10;;;;;;;14.79;40.65;99538.56;7793262;32;40037;-88
2023/12/26 13:24:06;;;;;;;6.30;2.12;;;;;;;14.56;40.24;99543.13;7793441;32;37677;-87
2023/12/26 13:28:22;;;;;;;5.68;2.15;;;;;;;15.45;38.80;99538.25;7793036;32;37683;-84
2023/12/26 13:32:38;;;;;;;3.58;1.70;;;;;;;15.58;36.74;99539.31;7793469;32;39896;-88
2023/12/26 13:36:55;;;;;;;2.55;1.33;;;;;;;17.32;33.43;99546.78;7783062;32;40896;-87
2023/12/26 13:41:11;;;;;;;3.17;1.50;;;;;;;18.11;32.16;99544.78;7792899;32;38107;-87
2023/12/26 13:45:28;;;;;;;3.25;1.87;;;;;;;17.11;33.96;99558.44;7792945;32;38828;-87
2023/12/26 13:49:44;;;;;;;2.42;1.58;;;;;;;18.63;31.01;99550.16;7779058;32;39075;-89
2023/12/26 13:54:01;;;;;;;2.95;1.25;;;;;;;19.91;28.37;99547.19;7792947;32;39918;-86
2023/12/26 13:58:17;;;;;;;4.18;1.10;;;;;;;19.52;28.55;99546.53;7778823;32;37832;-83
2023/12/26 14:02:33;;;;;;;2.12;1.42;;;;;;;21.89;25.33;99547.97;7793018;32;36704;-85
2023/12/26 14:06:51;;;;;;;3.92;1.10;;;;;;;23.15;23.76;99540.88;7792906;32;39355;-86
2023/12/26 14:11:08;;;;;;;3.33;1.35;;;;;;;22.55;24.67;99563.25;7792800;32;39237;-85
2023/12/26 14:15:24;;;;;;;4.80;1.50;;;;;;;21.81;24.98;99558.06;7791937;32;38015;-87
2023/12/26 14:19:40;;;;;;;2.05;1.40;;;;;;;21.06;26.10;99555.78;7791440;32;37606;-87
2023/12/26 14:23:57;;;;;;;2.37;1.27;;;;;;;20.85;27.08;99581.66;7792679;32;39928;-85
2023/12/26 14:28:14;;;;;;;3.08;1.35;;;;;;;20.71;26.83;99583.97;7792419;32;40012;-83
2023/12/26 14:32:30;;;;;;;2.33;1.40;;;;;;;18.45;30.56;99587.25;7792387;32;37921;-82
2023/12/26 14:36:47;;;;;;;4.20;1.67;;;;;;;18.80;30.46;99589.84;7792503;32;37633;-85
2023/12/26 14:41:03;;;;;;;2.25;1.30;;;;;;;18.31;31.32;99610.31;7792351;32;39998;-88
2023/12/26 14:45:19;;;;;;;4.05;1.90;;;;;;;17.34;33.22;99610.66;7792357;32;41026;-89
2023/12/26 14:49:36;;;;;;;7.90;2.72;;;;;;;15.26;37.10;99634.50;7792303;32;38659;-89
2023/12/26 14:53:52;;;;;;;5.18;2.70;;;;;;;13.97;40.49;99629.72;7792517;32;37458;-88
2023/12/26 14:58:08;;;;;;;4.28;2.40;;;;;;;12.70;43.47;99645.56;7792490;32;39461;-88
2023/12/26 15:02:25;;;;;;;3.83;1.98;;;;;;;12.84;43.80;99633.94;7792182;32;40615;-88
2023/12/26 15:06:42;;;;;;;6.50;2.30;;;;;;;12.22;44.86;99634.53;7791203;32;37801;-89
2023/12/26 15:10:58;;;;;;;6.70;2.65;;;;;;;11.98;45.27;99639.91;7791626;32;36992;-88
2023/12/26 15:15:14;;;;;;;6.10;2.72;;;;;;;12.23;45.47;99636.19;7791457;32;39300;-86
2023/12/26 15:19:31;;;;;;;6.30;2.70;;;;;;;12.53;44.92;99645.19;7791007;32;39958;-87
2023/12/26 15:23:51;;;;;;;3.50;1.80;;;;;;;12.24;46.04;99651.47;7790143;32;37872;-86
2023/12/26 15:28:08;;;;;;;2.58;1.80;;;;;;;11.07;48.90;99672.84;7790579;32;37691;-85
2023/12/26 15:32:25;;;;;;;1.95;1.75;;;;;;;11.43;48.36;99670.81;7791025;32;39348;-87
2023/12/26 15:36:41;;;;;;;3.17;1.90;;;;;;;10.89;49.13;99668.81;7791240;32;40061;-86
2023/12/26 15:40:58;;;;;;;4.10;2.35;;;;;;;11.39;48.31;99666.19;7790247;32;37516;-87
2023/12/26 15:45:19;;;;;;;3.75;2.15;;;;;;;11.28;49.05;99681.81;7791112;32;36785;-87
2023/12/26 15:49:36;;;;;;;3.08;2.00;;;;;;;10.95;49.86;99700.47;7790448;32;39850;-87
2023/12/26 15:53:53;;;;;;;1.87;1.70;;;;;;;11.32;48.94;99693.78;7789919;32;39879;-87
2023/12/26 15:58:09;;;;;;;4.15;2.20;;;;;;;11.02;49.73;99719.25;7789792;32;37928;-86
2023/12/26 16:02:26;;;;;;;5.05;2.15;;;;;;;11.10;49.36;99729.59;7789809;32;36576;-85
2023/12/26 16:06:42;;;;;;;2.50;1.92;;;;;;;10.95;49.37;99735.09;7789287;32;39803;-85
2023/12/26 16:11:00;;;;;;;7.03;2.40;;;;;;;10.93;49.12;99740.81;7788640;32;39964;-87
2023/12/26 16:15:20;;;;;;;7.03;3.15;;;;;;;11.04;49.73;99739.72;7789144;32;39168;-87
2023/12/26 16:19:42;;;;;;;7.43;2.70;;;;;;;10.68;51.42;99747.94;7788618;32;36898;-86
2023/12/26 16:23:59;;;;;;;4.33;2.30;;;;;;;10.46;52.39;99748.19;7774347;32;39134;-88
2023/12/26 16:28:15;;;;;;;2.50;1.95;;;;;;;10.54;52.09;99744.13;7787660;32;39909;-88
2023/12/26 16:32:32;;;;;;;4.18;2.20;;;;;;;10.23;53.09;99737.81;7787844;32;37566;-88
2023/12/26 16:36:48;;;;;;;2.92;1.92;;;;;;;10.45;51.84;99746.59;7788444;32;36687;-87
2023/12/26 16:41:10;;;;;;;5.47;2.22;;;;;;;10.36;52.70;99736.47;7789190;32;40051;-86
2023/12/26 16:45:27;;;;;;;6.15;2.87;;;;;;;10.56;51.95;99735.69;7788407;32;39842;-86
2023/12/26 16:49:44;;;;;;;5.62;2.58;;;;;;;10.35;52.38;99743.84;7788445;32;38395;-87
2023/12/26 16:54:01;;;;;;;4.97;2.60;;;;;;;10.21;53.09;99743.53;7792063;32;35308;-86
2023/12/26 16:58:17;;;;;;;5.93;3.00;;;;;;;9.83;53.98;99750.25;7778587;32;39354;-86
2023/12/26 17:02:34;;;;;;;7.05;2.90;;;;;;;9.83;54.30;99747.50;7778807;32;39585;-85
2023/12/26 17:06:50;;;;;;;6.03;2.60;;;;;;;10.19;53.33;99756.59;7792960;32;37523;-84
2023/12/26 17:11:11;;;;;;;6.53;2.70;;;;;;;9.61;55.22;99781.22;7792991;32;36973;-84
2023/12/26 17:15:27;;;;;;;5.37;2.80;;;;;;;10.33;53.43;99778.69;7792500;32;38400;-85
2023/12/26 17:19:44;;;;;;;5.72;3.03;;;;;;;10.44;53.02;99796.72;7778997;32;40712;-86
2023/12/26 17:24:05;;;;;;;6.45;2.92;;;;;;;10.59;52.56;99800.53;7792749;32;37855;-87
2023/12/26 17:28:21;;;;;;;5.72;2.70;;;;;;;10.43;52.90;99791.53;7792133;32;36921;-86
2023/12/26 17:32:38;;;;;;;6.28;2.95;;;;;;;10.57;52.87;99798.06;7792534;32;39975;-87
2023/12/26 17:36:54;;;;;;;4.80;2.97;;;;;;;10.53;53.14;99794.28;7792226;32;39818;-85
2023/12/26 17:41:11;;;;;;;6.15;2.85;;;;;;;10.20;54.37;99801.00;7790661;32;38526;-86
2023/12/26 17:45:28;;;;;;;6.55;2.87;;;;;;;10.47;53.40;99788.00;7792165;32;37740;-89
2023/12/26 17:49:45;;;;;;;6.65;3.28;;;;;;;10.45;53.45;99789.34;7792135;32;39463;-88
2023/12/26 17:54:02;;;;;;;5.37;2.95;;;;;;;9.92;55.05;99801.19;7792525;32;40181;-86
2023/12/26 17:58:18;;;;;;;6.97;3.45;;;;;;;10.14;53.81;99802.87;7791167;32;37665;-86
2023/12/26 18:02:35;;;;;;;6.18;3.20;;;;;;;9.74;55.13;99820.72;7791288;32;37044;-86
2023/12/26 18:06:51;;;;;;;9.10;3.15;;;;;;;10.10;54.11;99818.94;7791931;32;39269;-85
2023/12/26 18:11:07;;;;;;;7.65;3.22;;;;;;;9.65;55.28;99825.03;7791623;32;40681;-86
2023/12/26 18:15:23;;;;;;;5.85;3.15;;;;;;;9.45;56.41;99833.91;7789499;32;37817;-85
2023/12/26 18:19:40;;;;;;;6.40;3.60;;;;;;;9.32;56.63;99824.31;7790826;32;36794;-85
2023/12/26 18:23:56;;;;;;;5.65;3.30;;;;;;;9.72;55.53;99825.63;7792133;32;37636;-87
2023/12/26 18:28:14;;;;;;;6.37;3.55;;;;;;;9.38;56.39;99815.94;7791441;32;39925;-85
2023/12/26 18:32:30;;;;;;;6.62;3.30;;;;;;;9.65;55.39;99820.41;7790044;32;37639;-86
2023/12/26 18:36:47;;;;;;;8.68;3.62;;;;;;;9.61;55.91;99830.19;7789887;32;37029;-86
2023/12/26 18:41:07;;;;;;;8.75;3.92;;;;;;;9.76;55.60;99843.91;7776684;32;38947;-86
2023/12/26 18:45:25;;;;;;;9.63;4.32;;;;;;;10.13;54.37;99851.09;7790547;32;40696;-86
2023/12/26 18:49:42;;;;;;;9.52;4.47;;;;;;;10.01;54.65;99853.25;7790928;32;37796;-87
2023/12/26 18:54:00;;;;;;;6.32;3.28;;;;;;;10.00;54.71;99861.69;7776672;32;36240;-86
2023/12/26 18:58:16;;;;;;;6.43;3.75;;;;;;;9.82;54.96;99865.69;7791357;32;39173;-85
2023/12/26 19:02:35;;;;;;;7.97;3.58;;;;;;;9.52;55.73;99869.88;7791159;32;40836;-84
2023/12/26 19:06:52;;;;;;;8.52;3.10;;;;;;;9.51;55.70;99865.53;7777941;32;37650;-85
2023/12/26 19:11:13;;;;;;;5.37;3.10;;;;;;;9.76;55.40;99857.50;7791880;32;36958;-85
2023/12/26 19:15:29;;;;;;;4.07;2.60;;;;;;;9.36;56.34;99864.31;7777449;32;39171;-84
2023/12/26 19:19:45;;;;;;;5.00;2.92;;;;;;;9.07;57.42;99879.34;7791841;32;40067;-87
2023/12/26 19:24:02;;;;;;;4.53;3.00;;;;;;;9.36;56.74;99886.09;7790718;32;37421;-87
2023/12/26 19:28:18;;;;;;;7.40;2.90;;;;;;;9.08;57.38;99886.44;7790219;32;36770;-88
2023/12/26 19:32:34;;;;;;;8.68;3.40;;;;;;;9.42;56.70;99886.13;7791234;32;39488;-88
2023/12/26 19:36:51;;;;;;;6.57;2.97;;;;;;;8.69;58.95;99886.63;7790858;32;39867;-88
2023/12/26 19:41:07;;;;;;;5.93;3.40;;;;;;;9.09;57.90;99904.38;7791431;32;38720;-88
2023/12/26 19:45:23;;;;;;;7.35;3.50;;;;;;;8.80;58.48;99901.97;7790872;32;37679;-87
2023/12/26 19:49:40;;;;;;;9.25;3.80;;;;;;;9.29;57.15;99888.22;7791068;32;38906;-86
2023/12/26 19:53:56;;;;;;;7.87;3.50;;;;;;;9.52;56.34;99897.94;7790981;32;40023;-87
2023/12/26 19:58:13;;;;;;;7.90;3.78;;;;;;;9.23;56.93;99907.47;7790656;32;37730;-88
2023/12/26 20:02:29;;;;;;;8.43;3.58;;;;;;;8.95;57.86;99904.84;7790811;32;37659;-89
2023/12/26 20:06:46;;;;;;;8.68;3.65;;;;;;;8.94;58.21;99897.75;7790729;32;39364;-89